sensor_id;sensor_type;location;lat;lon;timestamp;temperature;humidity
65044;DHT22;51617;48.158;16.464;2023-06-26T00:00:27;21.80;92.40
65044;DHT22;51617;48.158;16.464;2023-06-26T00:02:53;21.80;92.40
65044;DHT22;51617;48.158;16.464;2023-06-26T00:05:18;21.80;92.40
65044;DHT22;51617;48.158;16.464;2023-06-26T00:07:44;21.70;92.50
65044;DHT22;51617;48.158;16.464;2023-06-26T00:10:10;21.70;92.50
65044;DHT22;51617;48.158;16.464;2023-06-26T00:12:35;21.70;92.50
65044;DHT22;51617;48.158;16.464;2023-06-26T00:15:01;21.70;92.60
65044;DHT22;51617;48.158;16.464;2023-06-26T00:17:27;21.60;92.60
65044;DHT22;51617;48.158;16.464;2023-06-26T00:19:52;21.50;92.80
65044;DHT22;51617;48.158;16.464;2023-06-26T00:22:18;21.40;92.90
65044;DHT22;51617;48.158;16.464;2023-06-26T00:24:44;21.30;93.00
65044;DHT22;51617;48.158;16.464;2023-06-26T00:27:10;21.30;92.90
65044;DHT22;51617;48.158;16.464;2023-06-26T00:29:36;21.30;93.00
65044;DHT22;51617;48.158;16.464;2023-06-26T00:32:04;21.30;93.00
65044;DHT22;51617;48.158;16.464;2023-06-26T00:34:30;21.30;93.00
65044;DHT22;51617;48.158;16.464;2023-06-26T00:36:55;21.30;93.00
65044;DHT22;51617;48.158;16.464;2023-06-26T00:39:21;21.30;92.90
65044;DHT22;51617;48.158;16.464;2023-06-26T00:41:46;21.30;92.80
65044;DHT22;51617;48.158;16.464;2023-06-26T00:44:13;21.30;92.80
65044;DHT22;51617;48.158;16.464;2023-06-26T00:46:38;21.30;93.50
65044;DHT22;51617;48.158;16.464;2023-06-26T00:49:04;21.00;93.90
65044;DHT22;51617;48.158;16.464;2023-06-26T00:51:30;20.90;94.00
65044;DHT22;51617;48.158;16.464;2023-06-26T00:53:57;21.00;93.70
65044;DHT22;51617;48.158;16.464;2023-06-26T00:56:23;21.00;93.40
65044;DHT22;51617;48.158;16.464;2023-06-26T00:58:49;21.00;93.80
65044;DHT22;51617;48.158;16.464;2023-06-26T01:01:15;20.80;94.00
65044;DHT22;51617;48.158;16.464;2023-06-26T01:03:44;20.60;94.40
65044;DHT22;51617;48.158;16.464;2023-06-26T01:06:11;20.40;94.80
65044;DHT22;51617;48.158;16.464;2023-06-26T01:08:38;20.20;95.00
65044;DHT22;51617;48.158;16.464;2023-06-26T01:11:04;20.20;95.40
65044;DHT22;51617;48.158;16.464;2023-06-26T01:13:30;20.10;95.50
65044;DHT22;51617;48.158;16.464;2023-06-26T01:15:57;20.00;95.60
65044;DHT22;51617;48.158;16.464;2023-06-26T01:18:24;19.80;95.90
65044;DHT22;51617;48.158;16.464;2023-06-26T01:20:51;19.60;96.40
65044;DHT22;51617;48.158;16.464;2023-06-26T01:28:34;19.30;97.20
65044;DHT22;51617;48.158;16.464;2023-06-26T01:31:02;19.20;97.40
65044;DHT22;51617;48.158;16.464;2023-06-26T01:33:28;19.20;97.60
65044;DHT22;51617;48.158;16.464;2023-06-26T01:35:54;19.10;97.70
65044;DHT22;51617;48.158;16.464;2023-06-26T01:38:21;18.90;98.00
65044;DHT22;51617;48.158;16.464;2023-06-26T01:40:52;18.90;98.40
65044;DHT22;51617;48.158;16.464;2023-06-26T01:46:27;18.70;98.90
65044;DHT22;51617;48.158;16.464;2023-06-26T01:51:41;18.70;99.00
65044;DHT22;51617;48.158;16.464;2023-06-26T01:54:16;18.80;98.90
65044;DHT22;51617;48.158;16.464;2023-06-26T01:56:43;18.70;99.00
65044;DHT22;51617;48.158;16.464;2023-06-26T01:59:10;18.70;99.00
65044;DHT22;51617;48.158;16.464;2023-06-26T02:01:37;18.80;99.20
65044;DHT22;51617;48.158;16.464;2023-06-26T02:04:02;18.80;99.20
65044;DHT22;51617;48.158;16.464;2023-06-26T02:06:28;18.90;99.10
65044;DHT22;51617;48.158;16.464;2023-06-26T02:08:54;19.00;99.00
65044;DHT22;51617;48.158;16.464;2023-06-26T02:11:22;19.10;98.70
65044;DHT22;51617;48.158;16.464;2023-06-26T02:13:48;19.20;98.40
65044;DHT22;51617;48.158;16.464;2023-06-26T02:16:13;19.30;98.20
65044;DHT22;51617;48.158;16.464;2023-06-26T02:18:39;19.40;98.10
65044;DHT22;51617;48.158;16.464;2023-06-26T02:21:06;19.40;98.10
65044;DHT22;51617;48.158;16.464;2023-06-26T02:23:32;19.30;98.10
65044;DHT22;51617;48.158;16.464;2023-06-26T02:25:57;19.30;98.20
65044;DHT22;51617;48.158;16.464;2023-06-26T02:28:23;19.20;98.10
65044;DHT22;51617;48.158;16.464;2023-06-26T02:30:48;19.20;98.20
65044;DHT22;51617;48.158;16.464;2023-06-26T02:33:14;19.10;98.10
65044;DHT22;51617;48.158;16.464;2023-06-26T02:35:40;19.00;98.30
65044;DHT22;51617;48.158;16.464;2023-06-26T02:38:05;18.90;98.60
65044;DHT22;51617;48.158;16.464;2023-06-26T02:40:31;18.90;98.80
65044;DHT22;51617;48.158;16.464;2023-06-26T02:42:57;18.80;98.80
65044;DHT22;51617;48.158;16.464;2023-06-26T02:45:22;18.90;98.90
65044;DHT22;51617;48.158;16.464;2023-06-26T02:47:48;18.90;99.00
65044;DHT22;51617;48.158;16.464;2023-06-26T02:50:13;18.80;98.90
65044;DHT22;51617;48.158;16.464;2023-06-26T02:52:39;18.70;99.00
65044;DHT22;51617;48.158;16.464;2023-06-26T02:55:05;18.70;99.00
65044;DHT22;51617;48.158;16.464;2023-06-26T02:57:31;18.70;99.10
65044;DHT22;51617;48.158;16.464;2023-06-26T02:59:56;18.70;99.20
65044;DHT22;51617;48.158;16.464;2023-06-26T03:02:22;18.70;99.30
65044;DHT22;51617;48.158;16.464;2023-06-26T03:04:47;18.70;99.30
65044;DHT22;51617;48.158;16.464;2023-06-26T03:07:15;18.60;99.50
65044;DHT22;51617;48.158;16.464;2023-06-26T03:09:41;18.60;99.50
65044;DHT22;51617;48.158;16.464;2023-06-26T03:12:07;18.70;99.40
65044;DHT22;51617;48.158;16.464;2023-06-26T03:14:33;18.80;99.20
65044;DHT22;51617;48.158;16.464;2023-06-26T03:16:59;18.80;99.10
65044;DHT22;51617;48.158;16.464;2023-06-26T03:19:28;18.90;99.10
65044;DHT22;51617;48.158;16.464;2023-06-26T03:21:54;18.90;99.00
65044;DHT22;51617;48.158;16.464;2023-06-26T03:24:20;18.90;99.00
65044;DHT22;51617;48.158;16.464;2023-06-26T03:26:46;18.80;99.30
65044;DHT22;51617;48.158;16.464;2023-06-26T03:29:11;18.60;99.60
65044;DHT22;51617;48.158;16.464;2023-06-26T03:31:37;18.40;99.90
65044;DHT22;51617;48.158;16.464;2023-06-26T03:34:02;18.40;99.90
65044;DHT22;51617;48.158;16.464;2023-06-26T03:36:28;18.50;99.90
65044;DHT22;51617;48.158;16.464;2023-06-26T03:38:54;18.60;99.90
65044;DHT22;51617;48.158;16.464;2023-06-26T03:41:22;18.80;99.80
65044;DHT22;51617;48.158;16.464;2023-06-26T03:43:48;18.90;99.80
65044;DHT22;51617;48.158;16.464;2023-06-26T03:46:14;19.00;99.40
65044;DHT22;51617;48.158;16.464;2023-06-26T03:48:39;19.10;99.40
65044;DHT22;51617;48.158;16.464;2023-06-26T03:51:05;19.30;99.20
65044;DHT22;51617;48.158;16.464;2023-06-26T03:53:32;19.30;98.90
65044;DHT22;51617;48.158;16.464;2023-06-26T03:55:58;19.40;98.90
65044;DHT22;51617;48.158;16.464;2023-06-26T03:58:24;19.50;98.70
65044;DHT22;51617;48.158;16.464;2023-06-26T04:00:50;19.60;98.50
65044;DHT22;51617;48.158;16.464;2023-06-26T04:03:16;19.70;98.20
65044;DHT22;51617;48.158;16.464;2023-06-26T04:05:42;19.80;97.90
65044;DHT22;51617;48.158;16.464;2023-06-26T04:08:08;19.90;97.70
65044;DHT22;51617;48.158;16.464;2023-06-26T04:10:34;20.00;97.50
65044;DHT22;51617;48.158;16.464;2023-06-26T04:13:01;20.10;97.40
65044;DHT22;51617;48.158;16.464;2023-06-26T04:15:27;20.20;97.20
65044;DHT22;51617;48.158;16.464;2023-06-26T04:17:52;20.30;97.00
65044;DHT22;51617;48.158;16.464;2023-06-26T04:20:18;20.40;96.80
65044;DHT22;51617;48.158;16.464;2023-06-26T04:22:43;20.40;96.70
65044;DHT22;51617;48.158;16.464;2023-06-26T04:25:09;20.50;96.70
65044;DHT22;51617;48.158;16.464;2023-06-26T04:27:38;20.60;96.60
65044;DHT22;51617;48.158;16.464;2023-06-26T04:30:04;20.60;96.40
65044;DHT22;51617;48.158;16.464;2023-06-26T04:32:30;20.70;96.30
65044;DHT22;51617;48.158;16.464;2023-06-26T04:34:56;20.80;96.30
65044;DHT22;51617;48.158;16.464;2023-06-26T04:37:22;20.90;96.20
65044;DHT22;51617;48.158;16.464;2023-06-26T04:39:49;21.00;95.90
65044;DHT22;51617;48.158;16.464;2023-06-26T04:42:15;21.00;95.70
65044;DHT22;51617;48.158;16.464;2023-06-26T04:44:40;21.10;95.70
65044;DHT22;51617;48.158;16.464;2023-06-26T04:47:07;21.20;95.60
65044;DHT22;51617;48.158;16.464;2023-06-26T04:49:33;21.20;95.60
65044;DHT22;51617;48.158;16.464;2023-06-26T04:52:00;21.20;95.50
65044;DHT22;51617;48.158;16.464;2023-06-26T04:54:26;21.30;95.40
65044;DHT22;51617;48.158;16.464;2023-06-26T04:56:53;21.40;95.20
65044;DHT22;51617;48.158;16.464;2023-06-26T04:59:19;21.50;95.10
65044;DHT22;51617;48.158;16.464;2023-06-26T05:01:44;21.60;94.90
65044;DHT22;51617;48.158;16.464;2023-06-26T05:04:14;21.70;94.80
65044;DHT22;51617;48.158;16.464;2023-06-26T05:06:40;21.80;95.10
65044;DHT22;51617;48.158;16.464;2023-06-26T05:09:06;21.80;94.50
65044;DHT22;51617;48.158;16.464;2023-06-26T05:11:31;21.90;94.40
65044;DHT22;51617;48.158;16.464;2023-06-26T05:13:57;21.90;94.20
65044;DHT22;51617;48.158;16.464;2023-06-26T05:16:23;22.00;94.20
65044;DHT22;51617;48.158;16.464;2023-06-26T05:18:48;22.20;94.20
65044;DHT22;51617;48.158;16.464;2023-06-26T05:21:15;22.20;94.00
65044;DHT22;51617;48.158;16.464;2023-06-26T05:23:42;22.30;93.80
65044;DHT22;51617;48.158;16.464;2023-06-26T05:26:10;22.40;93.60
65044;DHT22;51617;48.158;16.464;2023-06-26T05:28:36;22.40;93.60
65044;DHT22;51617;48.158;16.464;2023-06-26T05:31:03;22.50;93.20
65044;DHT22;51617;48.158;16.464;2023-06-26T05:33:30;22.60;93.10
65044;DHT22;51617;48.158;16.464;2023-06-26T05:35:56;22.70;92.60
65044;DHT22;51617;48.158;16.464;2023-06-26T05:38:24;22.80;92.30
65044;DHT22;51617;48.158;16.464;2023-06-26T05:40:50;22.90;91.80
65044;DHT22;51617;48.158;16.464;2023-06-26T05:43:16;22.90;92.10
65044;DHT22;51617;48.158;16.464;2023-06-26T05:45:46;23.00;91.70
65044;DHT22;51617;48.158;16.464;2023-06-26T05:48:12;23.10;91.50
65044;DHT22;51617;48.158;16.464;2023-06-26T05:50:38;23.20;91.20
65044;DHT22;51617;48.158;16.464;2023-06-26T05:53:06;23.30;91.10
65044;DHT22;51617;48.158;16.464;2023-06-26T05:55:31;23.30;90.40
65044;DHT22;51617;48.158;16.464;2023-06-26T05:57:58;23.40;90.00
65044;DHT22;51617;48.158;16.464;2023-06-26T06:00:25;23.40;90.00
65044;DHT22;51617;48.158;16.464;2023-06-26T06:02:52;23.50;90.00
65044;DHT22;51617;48.158;16.464;2023-06-26T06:05:20;23.50;89.80
65044;DHT22;51617;48.158;16.464;2023-06-26T06:07:47;23.60;90.10
65044;DHT22;51617;48.158;16.464;2023-06-26T06:10:13;23.60;88.60
65044;DHT22;51617;48.158;16.464;2023-06-26T06:12:38;23.70;88.90
65044;DHT22;51617;48.158;16.464;2023-06-26T06:15:05;23.70;89.00
65044;DHT22;51617;48.158;16.464;2023-06-26T06:17:30;23.80;89.20
65044;DHT22;51617;48.158;16.464;2023-06-26T06:19:56;23.80;88.90
65044;DHT22;51617;48.158;16.464;2023-06-26T06:22:22;23.80;88.40
65044;DHT22;51617;48.158;16.464;2023-06-26T06:24:49;23.90;88.30
65044;DHT22;51617;48.158;16.464;2023-06-26T06:27:15;23.90;88.40
65044;DHT22;51617;48.158;16.464;2023-06-26T06:29:41;24.00;88.30
65044;DHT22;51617;48.158;16.464;2023-06-26T06:32:06;24.00;87.80
65044;DHT22;51617;48.158;16.464;2023-06-26T06:34:32;24.00;87.60
65044;DHT22;51617;48.158;16.464;2023-06-26T06:36:58;24.10;87.50
65044;DHT22;51617;48.158;16.464;2023-06-26T06:39:23;24.10;87.30
65044;DHT22;51617;48.158;16.464;2023-06-26T06:41:49;24.10;87.10
65044;DHT22;51617;48.158;16.464;2023-06-26T06:44:15;24.10;86.50
65044;DHT22;51617;48.158;16.464;2023-06-26T06:46:40;24.20;86.60
65044;DHT22;51617;48.158;16.464;2023-06-26T06:49:06;24.20;86.90
65044;DHT22;51617;48.158;16.464;2023-06-26T06:51:31;24.20;86.70
65044;DHT22;51617;48.158;16.464;2023-06-26T06:53:57;24.20;86.40
65044;DHT22;51617;48.158;16.464;2023-06-26T06:56:23;24.30;86.40
65044;DHT22;51617;48.158;16.464;2023-06-26T06:58:48;24.40;87.00
65044;DHT22;51617;48.158;16.464;2023-06-26T07:01:14;24.50;86.80
65044;DHT22;51617;48.158;16.464;2023-06-26T07:03:40;24.70;86.40
65044;DHT22;51617;48.158;16.464;2023-06-26T07:06:05;24.70;85.90
65044;DHT22;51617;48.158;16.464;2023-06-26T07:08:31;24.80;85.60
65044;DHT22;51617;48.158;16.464;2023-06-26T07:10:57;24.90;85.60
65044;DHT22;51617;48.158;16.464;2023-06-26T07:13:23;25.00;85.10
65044;DHT22;51617;48.158;16.464;2023-06-26T07:15:48;25.00;84.80
65044;DHT22;51617;48.158;16.464;2023-06-26T07:18:14;25.00;83.90
65044;DHT22;51617;48.158;16.464;2023-06-26T07:20:40;25.00;83.30
65044;DHT22;51617;48.158;16.464;2023-06-26T07:23:06;25.00;83.80
65044;DHT22;51617;48.158;16.464;2023-06-26T07:25:31;25.10;83.80
65044;DHT22;51617;48.158;16.464;2023-06-26T07:27:57;25.20;83.40
65044;DHT22;51617;48.158;16.464;2023-06-26T07:30:23;25.20;83.10
65044;DHT22;51617;48.158;16.464;2023-06-26T07:32:49;25.30;82.00
65044;DHT22;51617;48.158;16.464;2023-06-26T07:35:15;25.30;81.40
65044;DHT22;51617;48.158;16.464;2023-06-26T07:37:41;25.30;81.70
65044;DHT22;51617;48.158;16.464;2023-06-26T07:40:07;25.30;81.40
65044;DHT22;51617;48.158;16.464;2023-06-26T07:42:33;25.30;80.50
65044;DHT22;51617;48.158;16.464;2023-06-26T07:44:59;25.40;79.90
65044;DHT22;51617;48.158;16.464;2023-06-26T07:47:24;25.40;79.40
65044;DHT22;51617;48.158;16.464;2023-06-26T07:49:50;25.40;79.70
65044;DHT22;51617;48.158;16.464;2023-06-26T07:52:16;25.50;78.90
65044;DHT22;51617;48.158;16.464;2023-06-26T07:54:41;25.40;79.30
65044;DHT22;51617;48.158;16.464;2023-06-26T07:57:07;25.50;80.20
65044;DHT22;51617;48.158;16.464;2023-06-26T07:59:34;25.50;80.50
65044;DHT22;51617;48.158;16.464;2023-06-26T08:02:00;25.50;80.60
65044;DHT22;51617;48.158;16.464;2023-06-26T08:04:27;25.60;80.80
65044;DHT22;51617;48.158;16.464;2023-06-26T08:06:55;25.70;80.40
65044;DHT22;51617;48.158;16.464;2023-06-26T08:09:23;25.60;79.90
65044;DHT22;51617;48.158;16.464;2023-06-26T08:11:49;25.60;80.00
65044;DHT22;51617;48.158;16.464;2023-06-26T08:14:15;25.70;79.60
65044;DHT22;51617;48.158;16.464;2023-06-26T08:16:41;25.70;80.30
65044;DHT22;51617;48.158;16.464;2023-06-26T08:19:08;25.80;79.70
65044;DHT22;51617;48.158;16.464;2023-06-26T08:21:34;25.90;79.00
65044;DHT22;51617;48.158;16.464;2023-06-26T08:23:59;25.90;79.00
65044;DHT22;51617;48.158;16.464;2023-06-26T08:26:25;26.00;78.80
65044;DHT22;51617;48.158;16.464;2023-06-26T08:28:51;26.00;78.20
65044;DHT22;51617;48.158;16.464;2023-06-26T08:31:17;26.00;77.60
65044;DHT22;51617;48.158;16.464;2023-06-26T08:33:43;26.10;77.60
65044;DHT22;51617;48.158;16.464;2023-06-26T08:36:08;26.00;76.80
65044;DHT22;51617;48.158;16.464;2023-06-26T08:38:34;26.00;77.40
65044;DHT22;51617;48.158;16.464;2023-06-26T08:41:01;26.10;76.20
65044;DHT22;51617;48.158;16.464;2023-06-26T08:43:27;26.10;75.30
65044;DHT22;51617;48.158;16.464;2023-06-26T08:45:53;26.20;75.30
65044;DHT22;51617;48.158;16.464;2023-06-26T08:48:20;26.20;76.00
65044;DHT22;51617;48.158;16.464;2023-06-26T08:50:48;26.30;75.60
65044;DHT22;51617;48.158;16.464;2023-06-26T08:53:43;26.30;75.50
65044;DHT22;51617;48.158;16.464;2023-06-26T08:56:11;26.30;75.50
65044;DHT22;51617;48.158;16.464;2023-06-26T08:58:39;26.40;75.20
65044;DHT22;51617;48.158;16.464;2023-06-26T09:01:04;26.40;75.20
65044;DHT22;51617;48.158;16.464;2023-06-26T09:03:32;26.40;75.30
65044;DHT22;51617;48.158;16.464;2023-06-26T09:05:58;26.50;75.20
65044;DHT22;51617;48.158;16.464;2023-06-26T09:08:24;26.60;75.50
65044;DHT22;51617;48.158;16.464;2023-06-26T09:10:49;26.70;74.20
65044;DHT22;51617;48.158;16.464;2023-06-26T09:13:15;26.70;72.60
65044;DHT22;51617;48.158;16.464;2023-06-26T09:15:45;26.70;74.50
65044;DHT22;51617;48.158;16.464;2023-06-26T09:18:11;26.70;74.20
65044;DHT22;51617;48.158;16.464;2023-06-26T09:20:37;26.70;73.90
65044;DHT22;51617;48.158;16.464;2023-06-26T09:23:03;26.80;73.40
65044;DHT22;51617;48.158;16.464;2023-06-26T09:25:29;26.80;73.20
65044;DHT22;51617;48.158;16.464;2023-06-26T09:27:56;26.80;73.20
65044;DHT22;51617;48.158;16.464;2023-06-26T09:30:22;26.70;72.80
65044;DHT22;51617;48.158;16.464;2023-06-26T09:32:47;26.80;73.90
65044;DHT22;51617;48.158;16.464;2023-06-26T09:35:14;27.00;73.80
65044;DHT22;51617;48.158;16.464;2023-06-26T09:37:40;27.20;73.70
65044;DHT22;51617;48.158;16.464;2023-06-26T09:40:06;27.30;72.90
65044;DHT22;51617;48.158;16.464;2023-06-26T09:42:32;27.30;72.60
65044;DHT22;51617;48.158;16.464;2023-06-26T09:44:58;27.30;71.70
65044;DHT22;51617;48.158;16.464;2023-06-26T09:47:24;27.40;71.80
65044;DHT22;51617;48.158;16.464;2023-06-26T09:49:49;27.40;72.20
65044;DHT22;51617;48.158;16.464;2023-06-26T09:52:17;27.60;71.60
65044;DHT22;51617;48.158;16.464;2023-06-26T09:54:44;27.50;71.60
65044;DHT22;51617;48.158;16.464;2023-06-26T09:57:16;27.50;70.90
65044;DHT22;51617;48.158;16.464;2023-06-26T09:59:43;27.50;71.20
65044;DHT22;51617;48.158;16.464;2023-06-26T10:02:12;27.50;71.80
65044;DHT22;51617;48.158;16.464;2023-06-26T10:04:38;27.50;71.80
65044;DHT22;51617;48.158;16.464;2023-06-26T10:07:11;27.60;71.60
65044;DHT22;51617;48.158;16.464;2023-06-26T10:09:41;27.60;71.80
65044;DHT22;51617;48.158;16.464;2023-06-26T10:12:11;27.70;70.90
65044;DHT22;51617;48.158;16.464;2023-06-26T10:14:39;27.70;70.90
65044;DHT22;51617;48.158;16.464;2023-06-26T10:17:10;27.90;71.60
65044;DHT22;51617;48.158;16.464;2023-06-26T10:19:38;28.00;70.20
65044;DHT22;51617;48.158;16.464;2023-06-26T10:22:05;28.00;69.70
65044;DHT22;51617;48.158;16.464;2023-06-26T10:24:35;28.10;70.00
65044;DHT22;51617;48.158;16.464;2023-06-26T10:27:13;28.10;69.40
65044;DHT22;51617;48.158;16.464;2023-06-26T10:29:40;28.20;69.30
65044;DHT22;51617;48.158;16.464;2023-06-26T10:32:07;28.30;69.50
65044;DHT22;51617;48.158;16.464;2023-06-26T10:34:34;28.30;69.80
65044;DHT22;51617;48.158;16.464;2023-06-26T10:37:02;28.50;69.00
65044;DHT22;51617;48.158;16.464;2023-06-26T10:42:11;28.50;68.40
65044;DHT22;51617;48.158;16.464;2023-06-26T10:44:44;28.50;68.30
65044;DHT22;51617;48.158;16.464;2023-06-26T10:47:29;28.50;67.90
65044;DHT22;51617;48.158;16.464;2023-06-26T10:50:27;28.60;67.50
65044;DHT22;51617;48.158;16.464;2023-06-26T10:56:05;28.40;67.80
65044;DHT22;51617;48.158;16.464;2023-06-26T10:58:34;28.50;68.30
65044;DHT22;51617;48.158;16.464;2023-06-26T11:03:44;28.70;66.90
65044;DHT22;51617;48.158;16.464;2023-06-26T11:06:11;28.70;67.30
65044;DHT22;51617;48.158;16.464;2023-06-26T11:08:54;28.70;65.50
65044;DHT22;51617;48.158;16.464;2023-06-26T11:14:30;28.70;63.90
65044;DHT22;51617;48.158;16.464;2023-06-26T11:16:56;28.60;63.50
65044;DHT22;51617;48.158;16.464;2023-06-26T11:19:27;28.70;64.30
65044;DHT22;51617;48.158;16.464;2023-06-26T11:22:14;28.70;62.60
65044;DHT22;51617;48.158;16.464;2023-06-26T11:24:41;28.80;63.90
65044;DHT22;51617;48.158;16.464;2023-06-26T11:27:08;28.80;65.00
65044;DHT22;51617;48.158;16.464;2023-06-26T11:29:34;29.00;64.50
65044;DHT22;51617;48.158;16.464;2023-06-26T11:32:01;29.10;64.70
65044;DHT22;51617;48.158;16.464;2023-06-26T11:34:29;29.00;65.30
65044;DHT22;51617;48.158;16.464;2023-06-26T11:36:57;29.00;65.30
65044;DHT22;51617;48.158;16.464;2023-06-26T11:39:22;29.10;65.80
65044;DHT22;51617;48.158;16.464;2023-06-26T11:41:48;29.30;64.90
65044;DHT22;51617;48.158;16.464;2023-06-26T11:44:14;29.30;64.00
65044;DHT22;51617;48.158;16.464;2023-06-26T11:46:45;29.30;63.60
65044;DHT22;51617;48.158;16.464;2023-06-26T11:49:11;29.30;64.20
65044;DHT22;51617;48.158;16.464;2023-06-26T11:51:36;29.30;63.90
65044;DHT22;51617;48.158;16.464;2023-06-26T11:54:03;29.30;63.40
65044;DHT22;51617;48.158;16.464;2023-06-26T11:56:29;29.30;64.50
65044;DHT22;51617;48.158;16.464;2023-06-26T11:58:55;29.30;63.90
65044;DHT22;51617;48.158;16.464;2023-06-26T12:01:22;29.30;62.70
65044;DHT22;51617;48.158;16.464;2023-06-26T12:03:49;29.40;64.00
65044;DHT22;51617;48.158;16.464;2023-06-26T12:06:15;29.40;63.30
65044;DHT22;51617;48.158;16.464;2023-06-26T12:08:41;29.50;63.80
65044;DHT22;51617;48.158;16.464;2023-06-26T12:11:07;29.60;63.00
65044;DHT22;51617;48.158;16.464;2023-06-26T12:13:33;29.70;63.00
65044;DHT22;51617;48.158;16.464;2023-06-26T12:15:59;29.80;61.80
65044;DHT22;51617;48.158;16.464;2023-06-26T12:18:25;29.90;61.60
65044;DHT22;51617;48.158;16.464;2023-06-26T12:20:52;30.00;61.90
65044;DHT22;51617;48.158;16.464;2023-06-26T12:23:18;30.00;61.40
65044;DHT22;51617;48.158;16.464;2023-06-26T12:25:43;30.00;61.60
65044;DHT22;51617;48.158;16.464;2023-06-26T12:28:17;30.10;61.60
65044;DHT22;51617;48.158;16.464;2023-06-26T12:30:46;30.10;62.00
65044;DHT22;51617;48.158;16.464;2023-06-26T12:33:15;30.20;61.10
65044;DHT22;51617;48.158;16.464;2023-06-26T12:35:41;30.20;61.20
65044;DHT22;51617;48.158;16.464;2023-06-26T12:38:08;30.30;61.70
65044;DHT22;51617;48.158;16.464;2023-06-26T12:40:45;30.30;62.70
65044;DHT22;51617;48.158;16.464;2023-06-26T12:43:25;30.30;62.20
65044;DHT22;51617;48.158;16.464;2023-06-26T12:45:57;30.40;61.20
65044;DHT22;51617;48.158;16.464;2023-06-26T12:48:43;30.40;61.10
65044;DHT22;51617;48.158;16.464;2023-06-26T12:51:15;30.50;61.50
65044;DHT22;51617;48.158;16.464;2023-06-26T12:53:41;30.50;61.10
65044;DHT22;51617;48.158;16.464;2023-06-26T12:56:08;30.50;61.10
65044;DHT22;51617;48.158;16.464;2023-06-26T12:58:37;30.50;62.40
65044;DHT22;51617;48.158;16.464;2023-06-26T13:01:05;30.60;61.60
65044;DHT22;51617;48.158;16.464;2023-06-26T13:03:31;30.80;60.80
65044;DHT22;51617;48.158;16.464;2023-06-26T13:05:57;30.90;60.70
65044;DHT22;51617;48.158;16.464;2023-06-26T13:08:22;30.90;60.50
65044;DHT22;51617;48.158;16.464;2023-06-26T13:10:48;31.00;61.30
65044;DHT22;51617;48.158;16.464;2023-06-26T13:13:14;31.30;61.20
65044;DHT22;51617;48.158;16.464;2023-06-26T13:15:39;31.40;60.00
65044;DHT22;51617;48.158;16.464;2023-06-26T13:18:05;31.40;59.50
65044;DHT22;51617;48.158;16.464;2023-06-26T13:20:30;31.50;59.80
65044;DHT22;51617;48.158;16.464;2023-06-26T13:22:56;31.50;59.40
65044;DHT22;51617;48.158;16.464;2023-06-26T13:25:22;31.70;58.80
65044;DHT22;51617;48.158;16.464;2023-06-26T13:27:48;31.50;58.60
65044;DHT22;51617;48.158;16.464;2023-06-26T13:30:15;31.50;58.70
65044;DHT22;51617;48.158;16.464;2023-06-26T13:32:43;31.70;58.10
65044;DHT22;51617;48.158;16.464;2023-06-26T13:35:09;31.80;58.10
65044;DHT22;51617;48.158;16.464;2023-06-26T13:37:35;31.80;58.50
65044;DHT22;51617;48.158;16.464;2023-06-26T13:40:02;31.80;58.50
65044;DHT22;51617;48.158;16.464;2023-06-26T13:42:29;31.80;58.60
65044;DHT22;51617;48.158;16.464;2023-06-26T13:44:54;31.80;58.50
65044;DHT22;51617;48.158;16.464;2023-06-26T13:47:20;31.80;58.50
65044;DHT22;51617;48.158;16.464;2023-06-26T13:49:46;31.90;58.40
65044;DHT22;51617;48.158;16.464;2023-06-26T13:52:12;32.00;58.20
65044;DHT22;51617;48.158;16.464;2023-06-26T13:54:38;32.00;58.20
65044;DHT22;51617;48.158;16.464;2023-06-26T13:57:05;31.90;58.10
65044;DHT22;51617;48.158;16.464;2023-06-26T13:59:32;31.80;58.50
65044;DHT22;51617;48.158;16.464;2023-06-26T14:01:57;32.00;59.00
65044;DHT22;51617;48.158;16.464;2023-06-26T14:04:24;32.30;58.80
65044;DHT22;51617;48.158;16.464;2023-06-26T14:06:50;32.40;58.90
65044;DHT22;51617;48.158;16.464;2023-06-26T14:09:16;32.60;58.40
65044;DHT22;51617;48.158;16.464;2023-06-26T14:11:41;32.80;58.30
65044;DHT22;51617;48.158;16.464;2023-06-26T14:14:07;33.20;57.60
65044;DHT22;51617;48.158;16.464;2023-06-26T14:16:33;33.40;57.00
65044;DHT22;51617;48.158;16.464;2023-06-26T14:18:59;33.30;57.20
65044;DHT22;51617;48.158;16.464;2023-06-26T14:21:25;33.30;57.30
65044;DHT22;51617;48.158;16.464;2023-06-26T14:23:53;33.30;56.90
65044;DHT22;51617;48.158;16.464;2023-06-26T14:26:18;33.40;57.00
65044;DHT22;51617;48.158;16.464;2023-06-26T14:28:44;33.50;57.70
65044;DHT22;51617;48.158;16.464;2023-06-26T14:31:10;33.90;56.80
65044;DHT22;51617;48.158;16.464;2023-06-26T14:33:35;33.70;56.10
65044;DHT22;51617;48.158;16.464;2023-06-26T14:36:02;34.00;56.00
65044;DHT22;51617;48.158;16.464;2023-06-26T14:38:28;35.20;55.00
65044;DHT22;51617;48.158;16.464;2023-06-26T14:40:53;36.20;54.00
65044;DHT22;51617;48.158;16.464;2023-06-26T14:43:19;37.30;52.40
65044;DHT22;51617;48.158;16.464;2023-06-26T14:45:44;37.00;51.50
65044;DHT22;51617;48.158;16.464;2023-06-26T14:48:10;35.90;51.90
65044;DHT22;51617;48.158;16.464;2023-06-26T14:50:36;35.60;52.50
65044;DHT22;51617;48.158;16.464;2023-06-26T14:53:01;35.10;52.90
65044;DHT22;51617;48.158;16.464;2023-06-26T14:55:27;35.00;53.70
65044;DHT22;51617;48.158;16.464;2023-06-26T14:57:53;35.80;54.20
65044;DHT22;51617;48.158;16.464;2023-06-26T15:00:19;35.80;52.40
65044;DHT22;51617;48.158;16.464;2023-06-26T15:02:45;34.90;52.90
65044;DHT22;51617;48.158;16.464;2023-06-26T15:05:10;34.20;53.60
65044;DHT22;51617;48.158;16.464;2023-06-26T15:07:36;33.80;54.80
65044;DHT22;51617;48.158;16.464;2023-06-26T15:10:02;33.60;55.10
65044;DHT22;51617;48.158;16.464;2023-06-26T15:12:27;34.90;54.70
65044;DHT22;51617;48.158;16.464;2023-06-26T15:14:53;35.90;53.20
65044;DHT22;51617;48.158;16.464;2023-06-26T15:17:19;36.20;53.60
65044;DHT22;51617;48.158;16.464;2023-06-26T15:19:44;36.70;51.80
65044;DHT22;51617;48.158;16.464;2023-06-26T15:22:10;36.50;51.20
65044;DHT22;51617;48.158;16.464;2023-06-26T15:24:35;36.00;52.30
65044;DHT22;51617;48.158;16.464;2023-06-26T15:27:01;36.10;51.60
65044;DHT22;51617;48.158;16.464;2023-06-26T15:29:27;35.90;52.00
65044;DHT22;51617;48.158;16.464;2023-06-26T15:31:53;35.70;52.40
65044;DHT22;51617;48.158;16.464;2023-06-26T15:34:21;35.40;53.40